sensor_id;sensor_type;location;lat;lon;timestamp;pressure;altitude;pressure_sealevel;temperature;humidity
10202;BME280;5143;42.584;23.164;2023-03-04T00:01:59;92517.47;;;5.09;100.00
10202;BME280;5143;42.584;23.164;2023-03-04T00:04:27;92515.66;;;5.06;100.00
10202;BME280;5143;42.584;23.164;2023-03-04T00:06:53;92523.19;;;5.11;100.00
10202;BME280;5143;42.584;23.164;2023-03-04T00:09:20;92521.53;;;5.14;100.00
10202;BME280;5143;42.584;23.164;2023-03-04T00:11:47;92522.16;;;5.18;100.00
10202;BME280;5143;42.584;23.164;2023-03-04T00:14:14;92518.38;;;5.15;100.00
10202;BME280;5143;42.584;23.164;2023-03-04T00:16:40;92507.44;;;5.19;100.00
10202;BME280;5143;42.584;23.164;2023-03-04T00:19:08;92522.00;;;5.21;100.00
10202;BME280;5143;42.584;23.164;2023-03-04T00:21:37;92519.91;;;5.16;100.00
10202;BME280;5143;42.584;23.164;2023-03-04T00:24:04;92524.38;;;5.19;100.00
10202;BME280;5143;42.584;23.164;2023-03-04T00:26:31;92513.13;;;5.12;100.00
10202;BME280;5143;42.584;23.164;2023-03-04T00:28:58;92508.72;;;4.87;100.00
10202;BME280;5143;42.584;23.164;2023-03-04T00:31:25;92510.22;;;4.97;100.00
10202;BME280;5143;42.584;23.164;2023-03-04T00:33:51;92523.03;;;5.06;100.00
10202;BME280;5143;42.584;23.164;2023-03-04T00:36:18;92518.66;;;5.08;100.00
10202;BME280;5143;42.584;23.164;2023-03-04T00:38:46;92522.13;;;5.09;100.00
10202;BME280;5143;42.584;23.164;2023-03-04T00:41:13;92522.72;;;5.04;100.00
10202;BME280;5143;42.584;23.164;2023-03-04T00:43:39;92521.38;;;4.99;100.00
10202;BME280;5143;42.584;23.164;2023-03-04T00:46:06;92505.69;;;4.76;100.00
10202;BME280;5143;42.584;23.164;2023-03-04T00:48:33;92514.00;;;4.91;100.00
10202;BME280;5143;42.584;23.164;2023-03-04T00:51:00;92511.44;;;4.96;100.00
10202;BME280;5143;42.584;23.164;2023-03-04T00:53:26;92504.97;;;5.03;100.00
10202;BME280;5143;42.584;23.164;2023-03-04T00:55:54;92504.53;;;5.04;100.00
10202;BME280;5143;42.584;23.164;2023-03-04T00:58:21;92507.53;;;5.06;100.00
10202;BME280;5143;42.584;23.164;2023-03-04T01:00:48;92500.78;;;5.02;100.00
10202;BME280;5143;42.584;23.164;2023-03-04T01:03:14;92506.34;;;4.98;100.00
10202;BME280;5143;42.584;23.164;2023-03-04T01:05:41;92493.28;;;4.97;100.00
10202;BME280;5143;42.584;23.164;2023-03-04T01:08:08;92505.44;;;5.01;100.00
10202;BME280;5143;42.584;23.164;2023-03-04T01:10:35;92494.47;;;4.96;100.00
10202;BME280;5143;42.584;23.164;2023-03-04T01:13:03;92495.81;;;5.00;100.00
10202;BME280;5143;42.584;23.164;2023-03-04T01:15:30;92486.38;;;5.05;100.00
10202;BME280;5143;42.584;23.164;2023-03-04T01:17:56;92489.50;;;5.03;100.00
10202;BME280;5143;42.584;23.164;2023-03-04T01:20:23;92482.75;;;5.08;100.00
10202;BME280;5143;42.584;23.164;2023-03-04T01:22:50;92480.06;;;5.08;100.00
10202;BME280;5143;42.584;23.164;2023-03-04T01:25:17;92490.56;;;5.06;100.00
10202;BME280;5143;42.584;23.164;2023-03-04T01:27:44;92473.44;;;5.09;100.00
10202;BME280;5143;42.584;23.164;2023-03-04T01:30:12;92483.34;;;5.12;100.00
10202;BME280;5143;42.584;23.164;2023-03-04T01:32:39;92475.09;;;5.15;100.00
10202;BME280;5143;42.584;23.164;2023-03-04T01:35:06;92476.91;;;5.09;100.00
10202;BME280;5143;42.584;23.164;2023-03-04T01:37:33;92480.78;;;5.08;100.00
10202;BME280;5143;42.584;23.164;2023-03-04T01:40:00;92474.19;;;5.09;100.00
10202;BME280;5143;42.584;23.164;2023-03-04T01:42:29;92473.28;;;5.12;100.00
10202;BME280;5143;42.584;23.164;2023-03-04T01:44:57;92473.00;;;5.10;100.00
10202;BME280;5143;42.584;23.164;2023-03-04T01:47:27;92467.13;;;5.12;100.00
10202;BME280;5143;42.584;23.164;2023-03-04T01:49:56;92467.88;;;5.12;100.00
10202;BME280;5143;42.584;23.164;2023-03-04T01:52:25;92470.59;;;5.12;100.00
10202;BME280;5143;42.584;23.164;2023-03-04T01:54:52;92462.16;;;5.01;100.00
10202;BME280;5143;42.584;23.164;2023-03-04T01:57:22;92462.75;;;4.96;100.00
10202;BME280;5143;42.584;23.164;2023-03-04T02:00:13;92458.53;;;4.95;100.00
10202;BME280;5143;42.584;23.164;2023-03-04T02:02:44;92470.88;;;4.96;100.00
10202;BME280;5143;42.584;23.164;2023-03-04T02:05:12;92464.25;;;4.97;100.00
10202;BME280;5143;42.584;23.164;2023-03-04T02:07:39;92456.13;;;4.97;100.00
10202;BME280;5143;42.584;23.164;2023-03-04T02:10:07;92453.44;;;4.97;100.00
10202;BME280;5143;42.584;23.164;2023-03-04T02:12:34;92455.09;;;4.95;100.00
10202;BME280;5143;42.584;23.164;2023-03-04T02:15:01;92457.34;;;4.96;100.00
10202;BME280;5143;42.584;23.164;2023-03-04T02:17:28;92456.59;;;4.96;100.00
10202;BME280;5143;42.584;23.164;2023-03-04T02:20:02;92448.94;;;4.94;100.00
10202;BME280;5143;42.584;23.164;2023-03-04T02:22:35;92454.03;;;4.92;100.00
10202;BME280;5143;42.584;23.164;2023-03-04T02:25:07;92458.25;;;4.93;100.00
10202;BME280;5143;42.584;23.164;2023-03-04T02:27:37;92459.28;;;4.87;100.00
10202;BME280;5143;42.584;23.164;2023-03-04T02:30:05;92454.63;;;4.87;100.00
10202;BME280;5143;42.584;23.164;2023-03-04T02:32:32;92453.13;;;4.86;100.00
10202;BME280;5143;42.584;23.164;2023-03-04T02:34:59;92456.44;;;4.90;100.00
10202;BME280;5143;42.584;23.164;2023-03-04T02:37:26;92453.28;;;4.92;100.00
10202;BME280;5143;42.584;23.164;2023-03-04T02:39:53;92449.22;;;4.87;100.00
10202;BME280;5143;42.584;23.164;2023-03-04T02:42:19;92445.59;;;4.72;100.00
10202;BME280;5143;42.584;23.164;2023-03-04T02:44:47;92438.22;;;4.72;100.00
10202;BME280;5143;42.584;23.164;2023-03-04T02:47:16;92439.56;;;4.68;100.00
10202;BME280;5143;42.584;23.164;2023-03-04T02:49:43;92440.75;;;4.67;100.00
10202;BME280;5143;42.584;23.164;2023-03-04T02:52:13;92440.50;;;4.74;100.00
10202;BME280;5143;42.584;23.164;2023-03-04T02:54:43;92444.56;;;4.69;100.00
10202;BME280;5143;42.584;23.164;2023-03-04T02:57:11;92452.97;;;4.71;100.00
10202;BME280;5143;42.584;23.164;2023-03-04T02:59:39;92444.09;;;4.71;100.00
10202;BME280;5143;42.584;23.164;2023-03-04T03:02:08;92441.25;;;4.74;100.00
10202;BME280;5143;42.584;23.164;2023-03-04T03:04:36;92442.00;;;4.75;100.00
10202;BME280;5143;42.584;23.164;2023-03-04T03:07:03;92435.97;;;4.71;100.00
10202;BME280;5143;42.584;23.164;2023-03-04T03:09:30;92442.00;;;4.75;100.00
10202;BME280;5143;42.584;23.164;2023-03-04T03:11:56;92449.78;;;4.73;100.00
10202;BME280;5143;42.584;23.164;2023-03-04T03:14:23;92440.50;;;4.74;100.00
10202;BME280;5143;42.584;23.164;2023-03-04T03:16:50;92435.97;;;4.71;100.00
10202;BME280;5143;42.584;23.164;2023-03-04T03:19:18;92436.28;;;4.64;100.00
10202;BME280;5143;42.584;23.164;2023-03-04T03:21:45;92433.25;;;4.62;100.00
10202;BME280;5143;42.584;23.164;2023-03-04T03:24:11;92432.66;;;4.58;100.00
10202;BME280;5143;42.584;23.164;2023-03-04T03:26:38;92430.81;;;4.46;100.00
10202;BME280;5143;42.584;23.164;2023-03-04T03:29:05;92421.16;;;4.27;100.00
10202;BME280;5143;42.584;23.164;2023-03-04T03:31:31;92426.25;;;4.25;100.00
10202;BME280;5143;42.584;23.164;2023-03-04T03:33:58;92417.81;;;4.13;100.00
10202;BME280;5143;42.584;23.164;2023-03-04T03:36:26;92412.53;;;4.01;100.00
10202;BME280;5143;42.584;23.164;2023-03-04T03:38:53;92413.53;;;3.94;100.00
10202;BME280;5143;42.584;23.164;2023-03-04T03:41:20;92418.72;;;3.80;100.00
10202;BME280;5143;42.584;23.164;2023-03-04T03:43:47;92411.03;;;3.69;100.00
10202;BME280;5143;42.584;23.164;2023-03-04T03:46:13;92417.31;;;3.66;100.00
10202;BME280;5143;42.584;23.164;2023-03-04T03:48:40;92415.59;;;3.50;100.00
10202;BME280;5143;42.584;23.164;2023-03-04T03:51:07;92414.16;;;3.37;100.00
10202;BME280;5143;42.584;23.164;2023-03-04T03:53:35;92417.22;;;3.26;100.00
10202;BME280;5143;42.584;23.164;2023-03-04T03:56:02;92408.31;;;3.17;100.00
10202;BME280;5143;42.584;23.164;2023-03-04T03:58:28;92416.22;;;3.11;100.00
10202;BME280;5143;42.584;23.164;2023-03-04T04:00:55;92407.63;;;3.04;100.00
10202;BME280;5143;42.584;23.164;2023-03-04T04:03:22;92403.22;;;2.97;100.00
10202;BME280;5143;42.584;23.164;2023-03-04T04:05:49;92400.91;;;2.86;100.00
10202;BME280;5143;42.584;23.164;2023-03-04T04:08:16;92402.16;;;2.73;100.00
10202;BME280;5143;42.584;23.164;2023-03-04T04:10:44;92404.34;;;2.65;100.00
10202;BME280;5143;42.584;23.164;2023-03-04T04:13:11;92404.13;;;2.60;100.00
10202;BME280;5143;42.584;23.164;2023-03-04T04:15:38;92410.19;;;2.51;100.00
10202;BME280;5143;42.584;23.164;2023-03-04T04:18:05;92408.38;;;2.48;100.00
10202;BME280;5143;42.584;23.164;2023-03-04T04:20:32;92413.13;;;2.44;100.00
10202;BME280;5143;42.584;23.164;2023-03-04T04:22:59;92409.78;;;2.40;100.00
10202;BME280;5143;42.584;23.164;2023-03-04T04:25:26;92410.66;;;2.37;100.00
10202;BME280;5143;42.584;23.164;2023-03-04T04:27:54;92412.06;;;2.29;100.00
10202;BME280;5143;42.584;23.164;2023-03-04T04:30:21;92404.22;;;2.22;100.00
10202;BME280;5143;42.584;23.164;2023-03-04T04:32:47;92406.38;;;2.14;100.00
10202;BME280;5143;42.584;23.164;2023-03-04T04:35:14;92401.66;;;2.06;100.00
10202;BME280;5143;42.584;23.164;2023-03-04T04:37:41;92402.53;;;2.03;100.00
10202;BME280;5143;42.584;23.164;2023-03-04T04:40:09;92406.50;;;1.98;100.00
10202;BME280;5143;42.584;23.164;2023-03-04T04:42:35;92397.47;;;1.92;100.00
10202;BME280;5143;42.584;23.164;2023-03-04T04:45:04;92402.88;;;1.92;100.00
10202;BME280;5143;42.584;23.164;2023-03-04T04:47:31;92406.63;;;1.95;100.00
10202;BME280;5143;42.584;23.164;2023-03-04T04:49:58;92402.88;;;1.92;100.00
10202;BME280;5143;42.584;23.164;2023-03-04T04:52:25;92399.84;;;1.90;100.00
10202;BME280;5143;42.584;23.164;2023-03-04T04:54:51;92403.81;;;1.86;100.00
10202;BME280;5143;42.584;23.164;2023-03-04T04:57:18;92408.56;;;1.82;100.00
10202;BME280;5143;42.584;23.164;2023-03-04T04:59:45;92408.75;;;1.87;100.00
10202;BME280;5143;42.584;23.164;2023-03-04T05:02:13;92406.72;;;1.91;100.00
10202;BME280;5143;42.584;23.164;2023-03-04T05:04:40;92410.19;;;1.92;100.00
10202;BME280;5143;42.584;23.164;2023-03-04T05:07:07;92416.53;;;1.98;100.00
10202;BME280;5143;42.584;23.164;2023-03-04T05:09:34;92409.63;;;1.97;100.00
10202;BME280;5143;42.584;23.164;2023-03-04T05:12:00;92423.31;;;2.02;100.00
10202;BME280;5143;42.584;23.164;2023-03-04T05:14:27;92427.06;;;2.05;100.00
10202;BME280;5143;42.584;23.164;2023-03-04T05:16:54;92429.13;;;2.13;100.00
10202;BME280;5143;42.584;23.164;2023-03-04T05:19:22;92423.63;;;2.17;100.00
10202;BME280;5143;42.584;23.164;2023-03-04T05:21:48;92426.41;;;2.26;100.00
10202;BME280;5143;42.584;23.164;2023-03-04T05:24:15;92413.66;;;2.39;100.00
10202;BME280;5143;42.584;23.164;2023-03-04T05:26:42;92423.97;;;2.53;100.00
10202;BME280;5143;42.584;23.164;2023-03-04T05:29:09;92428.59;;;2.65;100.00
10202;BME280;5143;42.584;23.164;2023-03-04T05:31:35;92445.47;;;2.78;100.00
10202;BME280;5143;42.584;23.164;2023-03-04T05:34:02;92438.34;;;2.84;100.00
10202;BME280;5143;42.584;23.164;2023-03-04T05:36:30;92446.06;;;2.95;100.00
10202;BME280;5143;42.584;23.164;2023-03-04T05:38:57;92436.22;;;3.01;100.00
10202;BME280;5143;42.584;23.164;2023-03-04T05:41:24;92449.03;;;3.10;100.00
10202;BME280;5143;42.584;23.164;2023-03-04T05:43:51;92446.72;;;3.21;100.00
10202;BME280;5143;42.584;23.164;2023-03-04T05:46:18;92442.00;;;3.34;100.00
10202;BME280;5143;42.584;23.164;2023-03-04T05:48:50;92445.25;;;3.50;100.00
10202;BME280;5143;42.584;23.164;2023-03-04T05:51:17;92448.22;;;3.65;100.00
10202;BME280;5143;42.584;23.164;2023-03-04T05:53:46;92446.06;;;3.91;100.00
10202;BME280;5143;42.584;23.164;2023-03-04T05:56:14;92447.19;;;4.02;100.00
10202;BME280;5143;42.584;23.164;2023-03-04T05:58:42;92436.03;;;3.91;100.00
10202;BME280;5143;42.584;23.164;2023-03-04T06:01:09;92443.66;;;4.14;100.00
10202;BME280;5143;42.584;23.164;2023-03-04T06:03:36;92445.63;;;4.32;100.00
10202;BME280;5143;42.584;23.164;2023-03-04T06:06:03;92452.72;;;4.48;100.00
10202;BME280;5143;42.584;23.164;2023-03-04T06:08:30;92449.34;;;4.65;100.00
10202;BME280;5143;42.584;23.164;2023-03-04T06:10:59;92450.13;;;4.84;100.00
10202;BME280;5143;42.584;23.164;2023-03-04T06:13:26;92457.19;;;5.09;100.00
10202;BME280;5143;42.584;23.164;2023-03-04T06:15:54;92456.47;;;5.35;100.00
10202;BME280;5143;42.584;23.164;2023-03-04T06:18:21;92460.19;;;5.56;100.00
10202;BME280;5143;42.584;23.164;2023-03-04T06:20:48;92466.66;;;5.59;100.00
10202;BME280;5143;42.584;23.164;2023-03-04T06:23:15;92463.81;;;5.44;100.00
10202;BME280;5143;42.584;23.164;2023-03-04T06:25:41;92478.13;;;5.35;100.00
10202;BME280;5143;42.584;23.164;2023-03-04T06:28:09;92477.50;;;5.68;100.00
10202;BME280;5143;42.584;23.164;2023-03-04T06:30:36;92485.88;;;5.97;100.00
10202;BME280;5143;42.584;23.164;2023-03-04T06:33:03;92491.75;;;6.46;100.00
10202;BME280;5143;42.584;23.164;2023-03-04T06:35:30;92492.75;;;6.67;100.00
10202;BME280;5143;42.584;23.164;2023-03-04T06:37:56;92496.88;;;6.86;100.00
10202;BME280;5143;42.584;23.164;2023-03-04T06:40:23;92502.34;;;7.01;100.00
10202;BME280;5143;42.584;23.164;2023-03-04T06:42:50;92495.59;;;6.96;100.00
10202;BME280;5143;42.584;23.164;2023-03-04T06:45:18;92512.97;;;6.90;100.00
10202;BME280;5143;42.584;23.164;2023-03-04T06:47:45;92501.66;;;6.91;100.00
10202;BME280;5143;42.584;23.164;2023-03-04T06:50:12;92502.69;;;6.94;100.00
10202;BME280;5143;42.584;23.164;2023-03-04T06:52:39;92509.97;;;6.88;100.00
10202;BME280;5143;42.584;23.164;2023-03-04T06:55:07;92498.28;;;6.73;100.00
10202;BME280;5143;42.584;23.164;2023-03-04T06:57:34;92507.47;;;6.75;100.00
10202;BME280;5143;42.584;23.164;2023-03-04T07:00:01;92510.59;;;6.83;100.00
10202;BME280;5143;42.584;23.164;2023-03-04T07:02:30;92509.16;;;6.73;100.00
10202;BME280;5143;42.584;23.164;2023-03-04T07:04:56;92512.28;;;7.04;100.00
10202;BME280;5143;42.584;23.164;2023-03-04T07:07:23;92520.09;;;7.73;100.00
10202;BME280;5143;42.584;23.164;2023-03-04T07:09:51;92520.09;;;8.41;100.00
10202;BME280;5143;42.584;23.164;2023-03-04T07:12:18;92532.16;;;7.57;100.00
10202;BME280;5143;42.584;23.164;2023-03-04T07:14:45;92524.53;;;8.00;100.00
10202;BME280;5143;42.584;23.164;2023-03-04T07:17:11;92533.94;;;8.13;100.00
10202;BME280;5143;42.584;23.164;2023-03-04T07:19:39;92527.63;;;8.46;100.00
10202;BME280;5143;42.584;23.164;2023-03-04T07:22:07;92529.59;;;8.45;100.00
10202;BME280;5143;42.584;23.164;2023-03-04T07:24:33;92528.91;;;8.65;100.00
10202;BME280;5143;42.584;23.164;2023-03-04T07:27:00;92532.81;;;9.28;100.00
10202;BME280;5143;42.584;23.164;2023-03-04T07:29:27;92543.97;;;9.30;100.00
10202;BME280;5143;42.584;23.164;2023-03-04T07:31:54;92533.50;;;9.43;100.00
10202;BME280;5143;42.584;23.164;2023-03-04T07:34:20;92533.63;;;9.34;100.00
10202;BME280;5143;42.584;23.164;2023-03-04T07:36:49;92532.19;;;9.59;100.00
10202;BME280;5143;42.584;23.164;2023-03-04T07:39:15;92534.94;;;9.59;100.00
10202;BME280;5143;42.584;23.164;2023-03-04T07:41:42;92527.75;;;9.21;100.00
10202;BME280;5143;42.584;23.164;2023-03-04T07:44:11;92535.09;;;9.15;100.00
10202;BME280;5143;42.584;23.164;2023-03-04T07:46:38;92536.06;;;9.12;100.00
10202;BME280;5143;42.584;23.164;2023-03-04T07:49:05;92531.19;;;9.01;100.00
10202;BME280;5143;42.584;23.164;2023-03-04T07:51:31;92529.00;;;9.40;100.00
10202;BME280;5143;42.584;23.164;2023-03-04T07:54:00;92532.41;;;10.16;100.00
10202;BME280;5143;42.584;23.164;2023-03-04T07:56:29;92529.66;;;10.41;100.00
10202;BME280;5143;42.584;23.164;2023-03-04T07:58:57;92515.34;;;10.21;100.00
10202;BME280;5143;42.584;23.164;2023-03-04T08:01:27;92524.75;;;10.71;100.00
10202;BME280;5143;42.584;23.164;2023-03-04T08:03:55;92518.63;;;10.56;100.00
10202;BME280;5143;42.584;23.164;2023-03-04T08:06:22;92529.31;;;10.54;100.00
10202;BME280;5143;42.584;23.164;2023-03-04T08:08:55;92534.06;;;10.59;100.00
10202;BME280;5143;42.584;23.164;2023-03-04T08:11:24;92535.13;;;10.16;100.00
10202;BME280;5143;42.584;23.164;2023-03-04T08:13:51;92525.09;;;9.26;100.00
10202;BME280;5143;42.584;23.164;2023-03-04T08:16:20;92520.56;;;9.38;100.00
10202;BME280;5143;42.584;23.164;2023-03-04T08:18:50;92524.19;;;9.49;100.00
10202;BME280;5143;42.584;23.164;2023-03-04T08:21:19;92515.50;;;9.51;100.00
10202;BME280;5143;42.584;23.164;2023-03-04T08:23:47;92528.09;;;9.89;100.00
10202;BME280;5143;42.584;23.164;2023-03-04T08:26:16;92517.97;;;9.49;100.00
10202;BME280;5143;42.584;23.164;2023-03-04T08:28:45;92513.53;;;9.52;100.00
10202;BME280;5143;42.584;23.164;2023-03-04T08:31:12;92517.72;;;9.47;100.00
10202;BME280;5143;42.584;23.164;2023-03-04T08:33:38;92511.63;;;9.37;100.00
10202;BME280;5143;42.584;23.164;2023-03-04T08:36:06;92511.09;;;9.33;100.00
10202;BME280;5143;42.584;23.164;2023-03-04T08:38:33;92506.47;;;9.05;100.00
10202;BME280;5143;42.584;23.164;2023-03-04T08:41:00;92512.28;;;9.12;100.00
10202;BME280;5143;42.584;23.164;2023-03-04T08:43:28;92514.06;;;9.15;100.00
10202;BME280;5143;42.584;23.164;2023-03-04T08:45:56;92512.56;;;9.34;100.00
10202;BME280;5143;42.584;23.164;2023-03-04T08:48:24;92518.66;;;9.44;100.00
10202;BME280;5143;42.584;23.164;2023-03-04T08:50:52;92499.84;;;9.66;100.00
10202;BME280;5143;42.584;23.164;2023-03-04T08:53:19;92514.50;;;9.69;100.00
10202;BME280;5143;42.584;23.164;2023-03-04T08:55:47;92515.91;;;9.24;100.00
10202;BME280;5143;42.584;23.164;2023-03-04T08:58:14;92503.03;;;9.24;100.00
10202;BME280;5143;42.584;23.164;2023-03-04T09:00:43;92520.47;;;9.73;100.00
10202;BME280;5143;42.584;23.164;2023-03-04T09:03:14;92517.13;;;9.83;100.00
10202;BME280;5143;42.584;23.164;2023-03-04T09:05:44;92512.34;;;9.53;100.00
10202;BME280;5143;42.584;23.164;2023-03-04T09:08:11;92510.75;;;9.66;100.00
10202;BME280;5143;42.584;23.164;2023-03-04T09:10:38;92510.31;;;9.93;100.00
10202;BME280;5143;42.584;23.164;2023-03-04T09:13:05;92500.31;;;9.85;100.00
10202;BME280;5143;42.584;23.164;2023-03-04T09:15:32;92509.47;;;9.41;100.00
10202;BME280;5143;42.584;23.164;2023-03-04T09:18:00;92511.31;;;9.50;100.00
10202;BME280;5143;42.584;23.164;2023-03-04T09:20:29;92518.56;;;9.79;100.00
10202;BME280;5143;42.584;23.164;2023-03-04T09:22:56;92506.88;;;9.32;100.00
10202;BME280;5143;42.584;23.164;2023-03-04T09:25:23;92504.41;;;9.14;100.00
10202;BME280;5143;42.584;23.164;2023-03-04T09:27:50;92509.50;;;9.27;100.00
10202;BME280;5143;42.584;23.164;2023-03-04T09:30:17;92508.59;;;9.50;100.00
10202;BME280;5143;42.584;23.164;2023-03-04T09:32:44;92501.97;;;9.57;100.00
10202;BME280;5143;42.584;23.164;2023-03-04T09:35:11;92491.34;;;9.38;100.00
10202;BME280;5143;42.584;23.164;2023-03-04T09:37:39;92506.19;;;9.58;100.00
10202;BME280;5143;42.584;23.164;2023-03-04T09:40:07;92499.84;;;9.66;100.00
10202;BME280;5143;42.584;23.164;2023-03-04T09:42:37;92507.88;;;9.75;100.00
10202;BME280;5143;42.584;23.164;2023-03-04T09:45:12;92495.69;;;10.17;100.00
10202;BME280;5143;42.584;23.164;2023-03-04T09:47:41;92507.16;;;10.21;97.13
10202;BME280;5143;42.584;23.164;2023-03-04T09:50:10;92508.63;;;9.96;95.58
10202;BME280;5143;42.584;23.164;2023-03-04T09:52:48;92494.53;;;9.17;100.00
10202;BME280;5143;42.584;23.164;2023-03-04T09:55:22;92496.31;;;9.40;100.00
10202;BME280;5143;42.584;23.164;2023-03-04T09:57:52;92485.41;;;9.60;100.00
10202;BME280;5143;42.584;23.164;2023-03-04T10:00:24;92486.47;;;9.88;100.00
10202;BME280;5143;42.584;23.164;2023-03-04T10:03:14;92465.78;;;10.02;100.00
10202;BME280;5143;42.584;23.164;2023-03-04T10:05:48;92486.59;;;10.25;100.00
10202;BME280;5143;42.584;23.164;2023-03-04T10:08:32;92487.25;;;10.15;100.00
10202;BME280;5143;42.584;23.164;2023-03-04T10:11:01;92485.19;;;10.09;100.00
10202;BME280;5143;42.584;23.164;2023-03-04T10:13:34;92481.34;;;10.16;100.00
10202;BME280;5143;42.584;23.164;2023-03-04T10:16:05;92473.94;;;10.22;100.00
10202;BME280;5143;42.584;23.164;2023-03-04T10:18:36;92480.69;;;10.58;100.00
10202;BME280;5143;42.584;23.164;2023-03-04T10:21:12;92486.72;;;10.68;97.36
10202;BME280;5143;42.584;23.164;2023-03-04T10:23:44;92473.63;;;10.40;100.00
10202;BME280;5143;42.584;23.164;2023-03-04T10:26:13;92478.00;;;10.63;100.00
10202;BME280;5143;42.584;23.164;2023-03-04T10:28:40;92473.56;;;10.66;99.13
10202;BME280;5143;42.584;23.164;2023-03-04T10:31:11;92471.88;;;10.74;100.00
10202;BME280;5143;42.584;23.164;2023-03-04T10:33:42;92473.56;;;10.66;94.84
10202;BME280;5143;42.584;23.164;2023-03-04T10:36:23;92460.78;;;10.83;98.04
10202;BME280;5143;42.584;23.164;2023-03-04T10:38:56;92457.88;;;10.61;95.46
10202;BME280;5143;42.584;23.164;2023-03-04T10:41:26;92456.41;;;10.60;95.95
10202;BME280;5143;42.584;23.164;2023-03-04T10:44:00;92453.19;;;10.61;94.85
10202;BME280;5143;42.584;23.164;2023-03-04T10:46:27;92453.38;;;10.89;95.84
10202;BME280;5143;42.584;23.164;2023-03-04T10:48:54;92441.38;;;10.76;100.00
10202;BME280;5143;42.584;23.164;2023-03-04T10:51:22;92449.56;;;10.76;98.79
10202;BME280;5143;42.584;23.164;2023-03-04T10:53:51;92445.34;;;11.17;94.14
10202;BME280;5143;42.584;23.164;2023-03-04T10:56:37;92430.56;;;10.92;98.75
10202;BME280;5143;42.584;23.164;2023-03-04T10:59:27;92430.47;;;11.23;100.00
10202;BME280;5143;42.584;23.164;2023-03-04T11:01:55;92420.97;;;11.13;99.58
10202;BME280;5143;42.584;23.164;2023-03-04T11:04:24;92415.50;;;10.65;100.00
10202;BME280;5143;42.584;23.164;2023-03-04T11:06:51;92410.16;;;10.82;100.00
10202;BME280;5143;42.584;23.164;2023-03-04T11:09:21;92413.56;;;10.77;99.95
10202;BME280;5143;42.584;23.164;2023-03-04T11:11:51;92400.81;;;10.63;98.84
10202;BME280;5143;42.584;23.164;2023-03-04T11:14:21;92416.59;;;10.79;85.31
10202;BME280;5143;42.584;23.164;2023-03-04T11:16:55;92400.25;;;10.90;100.00
10202;BME280;5143;42.584;23.164;2023-03-04T11:19:26;92404.38;;;10.75;86.85
10202;BME280;5143;42.584;23.164;2023-03-04T11:21:55;92392.09;;;10.96;92.45
10202;BME280;5143;42.584;23.164;2023-03-04T11:24:25;92379.59;;;10.78;100.00
10202;BME280;5143;42.584;23.164;2023-03-04T11:27:01;92392.88;;;11.07;100.00
10202;BME280;5143;42.584;23.164;2023-03-04T11:29:32;92392.78;;;11.39;85.35
10202;BME280;5143;42.584;23.164;2023-03-04T11:32:05;92388.69;;;11.06;83.08
10202;BME280;5143;42.584;23.164;2023-03-04T11:34:38;92381.03;;;11.21;87.17
10202;BME280;5143;42.584;23.164;2023-03-04T11:37:11;92379.56;;;11.20;82.70
10202;BME280;5143;42.584;23.164;2023-03-04T11:39:45;92371.84;;;11.19;89.53
10202;BME280;5143;42.584;23.164;2023-03-04T11:42:23;92375.13;;;11.29;96.88
10202;BME280;5143;42.584;23.164;2023-03-04T11:44:52;92360.94;;;11.24;97.51
10202;BME280;5143;42.584;23.164;2023-03-04T11:47:25;92362.09;;;11.12;96.73
10202;BME280;5143;42.584;23.164;2023-03-04T11:53:01;92352.13;;;10.50;97.26
10202;BME280;5143;42.584;23.164;2023-03-04T11:55:35;92352.63;;;10.49;100.00
10202;BME280;5143;42.584;23.164;2023-03-04T11:58:17;92354.16;;;11.03;99.36
10202;BME280;5143;42.584;23.164;2023-03-04T12:00:47;92350.31;;;10.79;96.00
10202;BME280;5143;42.584;23.164;2023-03-04T12:03:42;92353.59;;;10.94;99.08
10202;BME280;5143;42.584;23.164;2023-03-04T12:06:22;92351.44;;;11.09;100.00
10202;BME280;5143;42.584;23.164;2023-03-04T12:09:02;92341.78;;;11.19;94.40
10202;BME280;5143;42.584;23.164;2023-03-04T12:11:34;92345.13;;;11.51;99.84
10202;BME280;5143;42.584;23.164;2023-03-04T12:14:17;92346.28;;;11.27;92.79
10202;BME280;5143;42.584;23.164;2023-03-04T12:17:00;92347.03;;;11.28;95.33
10202;BME280;5143;42.584;23.164;2023-03-04T12:19:39;92344.63;;;10.82;95.66
10202;BME280;5143;42.584;23.164;2023-03-04T12:22:27;92332.47;;;10.41;100.00
10202;BME280;5143;42.584;23.164;2023-03-04T12:27:56;92336.28;;;10.18;100.00
10202;BME280;5143;42.584;23.164;2023-03-04T12:30:36;92322.38;;;10.16;100.00
10202;BME280;5143;42.584;23.164;2023-03-04T12:33:12;92326.63;;;9.91;100.00
10202;BME280;5143;42.584;23.164;2023-03-04T12:35:51;92328.66;;;9.96;100.00
10202;BME280;5143;42.584;23.164;2023-03-04T12:38:38;92324.78;;;9.51;100.00
10202;BME280;5143;42.584;23.164;2023-03-04T12:41:19;92310.75;;;9.32;100.00
10202;BME280;5143;42.584;23.164;2023-03-04T12:43:52;92296.69;;;9.14;100.00
10202;BME280;5143;42.584;23.164;2023-03-04T12:46:32;92311.91;;;9.26;100.00
10202;BME280;5143;42.584;23.164;2023-03-04T12:49:16;92310.16;;;9.23;100.00
10202;BME280;5143;42.584;23.164;2023-03-04T12:51:51;92304.06;;;9.08;100.00
10202;BME280;5143;42.584;23.164;2023-03-04T12:54:26;92302.47;;;8.55;100.00
10202;BME280;5143;42.584;23.164;2023-03-04T12:56:57;92299.25;;;8.97;100.00
10202;BME280;5143;42.584;23.164;2023-03-04T12:59:25;92295.50;;;8.95;100.00
10202;BME280;5143;42.584;23.164;2023-03-04T13:02:09;92289.16;;;9.03;100.00
10202;BME280;5143;42.584;23.164;2023-03-04T13:04:51;92288.41;;;9.03;100.00
10202;BME280;5143;42.584;23.164;2023-03-04T13:07:26;92288.63;;;8.79;100.00
10202;BME280;5143;42.584;23.164;2023-03-04T13:10:05;92280.56;;;8.64;100.00
10202;BME280;5143;42.584;23.164;2023-03-04T13:12:46;92281.59;;;8.67;100.00
10202;BME280;5143;42.584;23.164;2023-03-04T13:15:34;92286.13;;;8.55;100.00
10202;BME280;5143;42.584;23.164;2023-03-04T13:18:30;92272.25;;;8.33;100.00